sensor_id;sensor_type;location;lat;lon;timestamp;pressure;altitude;pressure_sealevel;temperature;humidity
54554;BME280;40450;55.848;-3.572;2024-02-15T00:00:56;98298.05;;;11.57;64.44
54554;BME280;40450;55.848;-3.572;2024-02-15T00:03:21;98301.00;;;11.76;63.88
54554;BME280;40450;55.848;-3.572;2024-02-15T00:05:46;98295.97;;;12.11;62.24
54554;BME280;40450;55.848;-3.572;2024-02-15T00:08:12;98296.15;;;12.28;61.34
54554;BME280;40450;55.848;-3.572;2024-02-15T00:10:37;98291.39;;;12.54;61.19
54554;BME280;40450;55.848;-3.572;2024-02-15T00:13:02;98290.39;;;12.87;59.51
54554;BME280;40450;55.848;-3.572;2024-02-15T00:15:27;98283.82;;;13.16;59.35
54554;BME280;40450;55.848;-3.572;2024-02-15T00:17:54;98283.49;;;13.09;57.07
54554;BME280;40450;55.848;-3.572;2024-02-15T00:20:18;98283.82;;;13.44;56.93
54554;BME280;40450;55.848;-3.572;2024-02-15T00:22:43;98280.82;;;13.43;55.75
54554;BME280;40450;55.848;-3.572;2024-02-15T00:25:08;98283.35;;;12.64;52.53
54554;BME280;40450;55.848;-3.572;2024-02-15T00:27:33;98281.85;;;12.19;54.33
54554;BME280;40450;55.848;-3.572;2024-02-15T00:29:59;98284.23;;;11.51;53.70
54554;BME280;40450;55.848;-3.572;2024-02-15T00:32:24;98282.68;;;11.49;53.58
54554;BME280;40450;55.848;-3.572;2024-02-15T00:34:49;98280.34;;;11.64;53.71
54554;BME280;40450;55.848;-3.572;2024-02-15T00:37:14;98275.56;;;11.26;53.67
54554;BME280;40450;55.848;-3.572;2024-02-15T00:39:40;98274.30;;;11.78;53.82
54554;BME280;40450;55.848;-3.572;2024-02-15T00:42:05;98272.92;;;12.13;53.23
54554;BME280;40450;55.848;-3.572;2024-02-15T00:44:30;98268.90;;;12.17;53.49
54554;BME280;40450;55.848;-3.572;2024-02-15T00:46:56;98269.42;;;12.08;52.63
54554;BME280;40450;55.848;-3.572;2024-02-15T00:49:22;98272.10;;;12.27;53.06
54554;BME280;40450;55.848;-3.572;2024-02-15T00:51:47;98267.94;;;11.67;52.81
54554;BME280;40450;55.848;-3.572;2024-02-15T00:54:14;98264.49;;;11.96;52.67
54554;BME280;40450;55.848;-3.572;2024-02-15T00:56:38;98258.36;;;12.15;52.12
54554;BME280;40450;55.848;-3.572;2024-02-15T00:59:03;98253.93;;;12.29;51.87
54554;BME280;40450;55.848;-3.572;2024-02-15T01:01:28;98252.39;;;12.63;52.66
54554;BME280;40450;55.848;-3.572;2024-02-15T01:03:53;98244.57;;;12.82;52.02
54554;BME280;40450;55.848;-3.572;2024-02-15T01:06:22;98243.73;;;12.82;51.35
54554;BME280;40450;55.848;-3.572;2024-02-15T01:08:44;98240.04;;;12.64;51.20
54554;BME280;40450;55.848;-3.572;2024-02-15T01:11:10;98243.15;;;11.25;50.69
54554;BME280;40450;55.848;-3.572;2024-02-15T01:13:35;98240.54;;;11.21;50.81
54554;BME280;40450;55.848;-3.572;2024-02-15T01:16:01;98233.99;;;11.13;51.74
54554;BME280;40450;55.848;-3.572;2024-02-15T01:18:26;98233.10;;;11.27;51.91
54554;BME280;40450;55.848;-3.572;2024-02-15T01:20:51;98232.50;;;11.02;51.63
54554;BME280;40450;55.848;-3.572;2024-02-15T01:23:17;98229.19;;;9.30;52.96
54554;BME280;40450;55.848;-3.572;2024-02-15T01:25:42;98223.77;;;9.54;54.11
54554;BME280;40450;55.848;-3.572;2024-02-15T01:28:08;98221.66;;;10.25;53.32
54554;BME280;40450;55.848;-3.572;2024-02-15T01:30:33;98216.55;;;9.82;53.36
54554;BME280;40450;55.848;-3.572;2024-02-15T01:32:59;98215.16;;;10.39;53.63
54554;BME280;40450;55.848;-3.572;2024-02-15T01:35:26;98211.89;;;10.04;53.24
54554;BME280;40450;55.848;-3.572;2024-02-15T01:37:50;98212.50;;;8.93;54.37
54554;BME280;40450;55.848;-3.572;2024-02-15T01:40:16;98214.90;;;7.90;56.80
54554;BME280;40450;55.848;-3.572;2024-02-15T01:42:41;98215.73;;;8.72;56.75
54554;BME280;40450;55.848;-3.572;2024-02-15T01:45:06;98215.74;;;7.90;57.91
54554;BME280;40450;55.848;-3.572;2024-02-15T01:47:32;98212.97;;;8.98;58.13
54554;BME280;40450;55.848;-3.572;2024-02-15T01:49:57;98212.11;;;9.41;57.09
54554;BME280;40450;55.848;-3.572;2024-02-15T01:52:22;98209.36;;;10.24;57.54
54554;BME280;40450;55.848;-3.572;2024-02-15T01:54:48;98207.65;;;10.40;55.20
54554;BME280;40450;55.848;-3.572;2024-02-15T01:57:13;98210.14;;;10.30;55.73
54554;BME280;40450;55.848;-3.572;2024-02-15T01:59:39;98209.69;;;9.97;53.07
54554;BME280;40450;55.848;-3.572;2024-02-15T02:02:08;98205.93;;;10.46;55.36
54554;BME280;40450;55.848;-3.572;2024-02-15T02:04:29;98204.51;;;10.93;54.79
54554;BME280;40450;55.848;-3.572;2024-02-15T02:06:55;98206.24;;;11.01;54.32
54554;BME280;40450;55.848;-3.572;2024-02-15T02:09:20;98199.70;;;10.88;52.58
54554;BME280;40450;55.848;-3.572;2024-02-15T02:11:46;98198.49;;;10.84;52.29
54554;BME280;40450;55.848;-3.572;2024-02-15T02:14:11;98194.59;;;10.50;52.82
54554;BME280;40450;55.848;-3.572;2024-02-15T02:16:37;98190.11;;;11.07;52.26
54554;BME280;40450;55.848;-3.572;2024-02-15T02:19:03;98185.19;;;10.34;52.29
54554;BME280;40450;55.848;-3.572;2024-02-15T02:21:29;98184.05;;;10.33;51.98
54554;BME280;40450;55.848;-3.572;2024-02-15T02:23:57;98184.81;;;10.39;52.29
54554;BME280;40450;55.848;-3.572;2024-02-15T02:26:20;98184.09;;;10.39;52.72
54554;BME280;40450;55.848;-3.572;2024-02-15T02:28:45;98180.99;;;10.55;52.30
54554;BME280;40450;55.848;-3.572;2024-02-15T02:31:10;98182.78;;;10.50;52.16
54554;BME280;40450;55.848;-3.572;2024-02-15T02:33:36;98180.15;;;11.26;53.42
54554;BME280;40450;55.848;-3.572;2024-02-15T02:36:01;98172.38;;;11.84;51.91
54554;BME280;40450;55.848;-3.572;2024-02-15T02:38:27;98168.96;;;10.94;51.43
54554;BME280;40450;55.848;-3.572;2024-02-15T02:40:52;98162.99;;;11.08;52.26
54554;BME280;40450;55.848;-3.572;2024-02-15T02:43:20;98160.98;;;9.85;51.35
54554;BME280;40450;55.848;-3.572;2024-02-15T02:45:43;98160.18;;;11.13;50.32
54554;BME280;40450;55.848;-3.572;2024-02-15T02:48:09;98158.74;;;8.91;51.80
54554;BME280;40450;55.848;-3.572;2024-02-15T02:50:34;98159.97;;;7.19;56.65
54554;BME280;40450;55.848;-3.572;2024-02-15T02:52:59;98154.26;;;7.53;56.42
54554;BME280;40450;55.848;-3.572;2024-02-15T02:55:25;98150.22;;;7.95;57.06
54554;BME280;40450;55.848;-3.572;2024-02-15T02:57:50;98148.02;;;8.81;56.59
54554;BME280;40450;55.848;-3.572;2024-02-15T03:00:16;98146.31;;;7.78;57.63
54554;BME280;40450;55.848;-3.572;2024-02-15T03:02:42;98138.56;;;7.91;58.61
54554;BME280;40450;55.848;-3.572;2024-02-15T03:05:07;98141.57;;;6.63;60.42
54554;BME280;40450;55.848;-3.572;2024-02-15T03:07:33;98136.77;;;8.13;60.02
54554;BME280;40450;55.848;-3.572;2024-02-15T03:09:57;98134.02;;;8.90;59.01
54554;BME280;40450;55.848;-3.572;2024-02-15T03:12:23;98130.69;;;9.08;58.75
54554;BME280;40450;55.848;-3.572;2024-02-15T03:14:49;98124.74;;;8.71;57.69
54554;BME280;40450;55.848;-3.572;2024-02-15T03:17:15;98126.06;;;9.42;58.16
54554;BME280;40450;55.848;-3.572;2024-02-15T03:19:42;98116.22;;;10.30;57.50
54554;BME280;40450;55.848;-3.572;2024-02-15T03:22:05;98115.35;;;11.04;57.64
54554;BME280;40450;55.848;-3.572;2024-02-15T03:24:30;98110.36;;;10.07;55.48
54554;BME280;40450;55.848;-3.572;2024-02-15T03:26:55;98106.73;;;10.57;54.85
54554;BME280;40450;55.848;-3.572;2024-02-15T03:29:21;98104.28;;;10.70;55.46
54554;BME280;40450;55.848;-3.572;2024-02-15T03:31:46;98100.33;;;10.17;53.99
54554;BME280;40450;55.848;-3.572;2024-02-15T03:34:11;98095.81;;;9.56;54.41
54554;BME280;40450;55.848;-3.572;2024-02-15T03:36:37;98094.77;;;9.88;54.51
54554;BME280;40450;55.848;-3.572;2024-02-15T03:39:02;98095.00;;;10.00;54.12
54554;BME280;40450;55.848;-3.572;2024-02-15T03:41:27;98099.86;;;8.12;54.95
54554;BME280;40450;55.848;-3.572;2024-02-15T03:43:55;98099.33;;;8.31;56.17
54554;BME280;40450;55.848;-3.572;2024-02-15T03:46:17;98095.09;;;8.49;56.48
54554;BME280;40450;55.848;-3.572;2024-02-15T03:48:43;98092.17;;;8.37;57.98
54554;BME280;40450;55.848;-3.572;2024-02-15T03:51:08;98100.27;;;7.92;58.36
54554;BME280;40450;55.848;-3.572;2024-02-15T03:53:33;98110.87;;;7.22;60.47
54554;BME280;40450;55.848;-3.572;2024-02-15T03:55:58;98112.85;;;9.38;59.85
54554;BME280;40450;55.848;-3.572;2024-02-15T03:58:23;98106.65;;;9.61;58.81
54554;BME280;40450;55.848;-3.572;2024-02-15T04:00:49;98104.94;;;10.78;58.46
54554;BME280;40450;55.848;-3.572;2024-02-15T04:03:14;98099.42;;;10.72;57.80
54554;BME280;40450;55.848;-3.572;2024-02-15T04:05:39;98098.86;;;11.00;56.11
54554;BME280;40450;55.848;-3.572;2024-02-15T04:08:05;98093.90;;;11.25;55.31
54554;BME280;40450;55.848;-3.572;2024-02-15T04:10:29;98088.08;;;11.54;55.06
54554;BME280;40450;55.848;-3.572;2024-02-15T04:12:55;98085.03;;;11.47;54.36
54554;BME280;40450;55.848;-3.572;2024-02-15T04:15:20;98075.42;;;11.91;53.65
54554;BME280;40450;55.848;-3.572;2024-02-15T04:17:45;98070.77;;;11.76;52.80
54554;BME280;40450;55.848;-3.572;2024-02-15T04:20:10;98064.80;;;11.59;52.53
54554;BME280;40450;55.848;-3.572;2024-02-15T04:22:36;98065.32;;;11.47;51.89
54554;BME280;40450;55.848;-3.572;2024-02-15T04:25:01;98061.72;;;11.29;52.72
54554;BME280;40450;55.848;-3.572;2024-02-15T04:27:26;98060.08;;;11.56;52.25
54554;BME280;40450;55.848;-3.572;2024-02-15T04:29:52;98054.79;;;11.30;52.17
54554;BME280;40450;55.848;-3.572;2024-02-15T04:32:17;98046.20;;;11.45;51.70
54554;BME280;40450;55.848;-3.572;2024-02-15T04:34:42;98046.84;;;11.87;51.40
54554;BME280;40450;55.848;-3.572;2024-02-15T04:37:07;98044.01;;;11.87;51.08
54554;BME280;40450;55.848;-3.572;2024-02-15T04:39:32;98042.18;;;11.78;50.93
54554;BME280;40450;55.848;-3.572;2024-02-15T04:41:58;98045.39;;;11.99;51.26
54554;BME280;40450;55.848;-3.572;2024-02-15T04:44:23;98045.24;;;12.28;50.88
54554;BME280;40450;55.848;-3.572;2024-02-15T04:46:48;98044.96;;;12.03;50.53
54554;BME280;40450;55.848;-3.572;2024-02-15T04:49:13;98041.49;;;12.09;49.73
54554;BME280;40450;55.848;-3.572;2024-02-15T04:51:38;98039.61;;;12.10;49.26
54554;BME280;40450;55.848;-3.572;2024-02-15T04:54:03;98035.75;;;11.98;48.98
54554;BME280;40450;55.848;-3.572;2024-02-15T04:56:28;98036.71;;;11.21;48.72
54554;BME280;40450;55.848;-3.572;2024-02-15T04:58:54;98040.48;;;10.87;49.28
54554;BME280;40450;55.848;-3.572;2024-02-15T05:01:19;98035.58;;;11.08;49.72
54554;BME280;40450;55.848;-3.572;2024-02-15T05:03:44;98035.08;;;9.74;50.17
54554;BME280;40450;55.848;-3.572;2024-02-15T05:06:10;98030.93;;;10.21;50.65
54554;BME280;40450;55.848;-3.572;2024-02-15T05:08:35;98030.16;;;10.38;51.11
54554;BME280;40450;55.848;-3.572;2024-02-15T05:11:00;98027.90;;;10.68;51.73
54554;BME280;40450;55.848;-3.572;2024-02-15T05:13:25;98024.46;;;11.15;51.61
54554;BME280;40450;55.848;-3.572;2024-02-15T05:15:50;98016.73;;;11.82;52.29
54554;BME280;40450;55.848;-3.572;2024-02-15T05:18:17;98015.32;;;11.87;51.01
54554;BME280;40450;55.848;-3.572;2024-02-15T05:20:40;98009.66;;;11.93;51.59
54554;BME280;40450;55.848;-3.572;2024-02-15T05:23:05;98008.21;;;11.43;51.34
54554;BME280;40450;55.848;-3.572;2024-02-15T05:25:31;98011.92;;;12.01;51.06
54554;BME280;40450;55.848;-3.572;2024-02-15T05:27:56;98012.18;;;12.07;50.24
54554;BME280;40450;55.848;-3.572;2024-02-15T05:30:21;98009.79;;;11.99;49.41
54554;BME280;40450;55.848;-3.572;2024-02-15T05:32:47;98008.59;;;12.13;51.00
54554;BME280;40450;55.848;-3.572;2024-02-15T05:35:12;98006.78;;;12.53;50.83
54554;BME280;40450;55.848;-3.572;2024-02-15T05:37:37;98006.36;;;12.18;50.20
54554;BME280;40450;55.848;-3.572;2024-02-15T05:40:02;98004.34;;;11.75;51.27
54554;BME280;40450;55.848;-3.572;2024-02-15T05:42:27;98011.83;;;10.87;54.64
54554;BME280;40450;55.848;-3.572;2024-02-15T05:44:53;98013.05;;;10.51;55.94
54554;BME280;40450;55.848;-3.572;2024-02-15T05:47:18;98011.00;;;9.54;60.33
54554;BME280;40450;55.848;-3.572;2024-02-15T05:49:43;98012.77;;;9.27;62.89
54554;BME280;40450;55.848;-3.572;2024-02-15T05:52:10;98010.75;;;9.56;63.24
54554;BME280;40450;55.848;-3.572;2024-02-15T05:54:33;98005.92;;;9.47;64.25
54554;BME280;40450;55.848;-3.572;2024-02-15T05:56:58;98006.09;;;9.95;63.60
54554;BME280;40450;55.848;-3.572;2024-02-15T05:59:24;98005.59;;;9.61;64.40
54554;BME280;40450;55.848;-3.572;2024-02-15T06:01:49;98003.97;;;9.05;66.75
54554;BME280;40450;55.848;-3.572;2024-02-15T06:04:14;97992.97;;;9.23;66.01
54554;BME280;40450;55.848;-3.572;2024-02-15T06:06:39;97993.70;;;9.71;65.65
54554;BME280;40450;55.848;-3.572;2024-02-15T06:09:04;97990.97;;;9.60;65.69
54554;BME280;40450;55.848;-3.572;2024-02-15T06:11:29;97991.85;;;9.34;67.74
54554;BME280;40450;55.848;-3.572;2024-02-15T06:13:55;97991.39;;;8.93;68.50
54554;BME280;40450;55.848;-3.572;2024-02-15T06:16:20;97986.17;;;9.56;67.86
54554;BME280;40450;55.848;-3.572;2024-02-15T06:18:46;97980.12;;;9.20;68.53
54554;BME280;40450;55.848;-3.572;2024-02-15T06:21:10;97984.49;;;8.64;70.79
54554;BME280;40450;55.848;-3.572;2024-02-15T06:23:35;97980.26;;;8.69;71.12
54554;BME280;40450;55.848;-3.572;2024-02-15T06:26:01;97977.60;;;8.83;71.86
54554;BME280;40450;55.848;-3.572;2024-02-15T06:28:26;97973.92;;;9.07;71.34
54554;BME280;40450;55.848;-3.572;2024-02-15T06:30:51;97974.46;;;9.33;70.13
54554;BME280;40450;55.848;-3.572;2024-02-15T06:33:16;97976.90;;;8.98;70.85
54554;BME280;40450;55.848;-3.572;2024-02-15T06:35:41;97976.46;;;8.64;72.59
54554;BME280;40450;55.848;-3.572;2024-02-15T06:38:08;97967.55;;;8.82;72.25
54554;BME280;40450;55.848;-3.572;2024-02-15T06:40:31;97965.23;;;8.92;72.01
54554;BME280;40450;55.848;-3.572;2024-02-15T06:42:57;97964.85;;;9.01;71.91
54554;BME280;40450;55.848;-3.572;2024-02-15T06:45:22;97960.22;;;8.96;70.96
54554;BME280;40450;55.848;-3.572;2024-02-15T06:47:47;97958.55;;;8.64;71.79
54554;BME280;40450;55.848;-3.572;2024-02-15T06:50:12;97953.63;;;9.02;71.23
54554;BME280;40450;55.848;-3.572;2024-02-15T06:52:37;97948.70;;;9.45;70.63
54554;BME280;40450;55.848;-3.572;2024-02-15T06:55:03;97944.86;;;9.25;70.31
54554;BME280;40450;55.848;-3.572;2024-02-15T06:57:28;97942.32;;;9.42;70.66
54554;BME280;40450;55.848;-3.572;2024-02-15T06:59:53;97942.90;;;9.58;70.19
54554;BME280;40450;55.848;-3.572;2024-02-15T07:02:18;97940.48;;;9.58;69.40
54554;BME280;40450;55.848;-3.572;2024-02-15T07:04:44;97939.47;;;9.73;69.38
54554;BME280;40450;55.848;-3.572;2024-02-15T07:07:08;97938.06;;;9.38;69.57
54554;BME280;40450;55.848;-3.572;2024-02-15T07:09:33;97933.27;;;9.25;70.14
54554;BME280;40450;55.848;-3.572;2024-02-15T07:11:59;97934.02;;;9.66;70.58
54554;BME280;40450;55.848;-3.572;2024-02-15T07:14:24;97931.95;;;9.15;70.79
54554;BME280;40450;55.848;-3.572;2024-02-15T07:16:49;97933.57;;;8.93;71.40
54554;BME280;40450;55.848;-3.572;2024-02-15T07:19:15;97931.17;;;8.99;71.54
54554;BME280;40450;55.848;-3.572;2024-02-15T07:21:40;97935.76;;;9.48;71.09
54554;BME280;40450;55.848;-3.572;2024-02-15T07:24:05;97935.48;;;9.26;71.58
54554;BME280;40450;55.848;-3.572;2024-02-15T07:26:30;97932.40;;;9.26;71.22
54554;BME280;40450;55.848;-3.572;2024-02-15T07:28:55;97932.52;;;9.97;69.95
54554;BME280;40450;55.848;-3.572;2024-02-15T07:31:20;97932.54;;;10.17;69.47
54554;BME280;40450;55.848;-3.572;2024-02-15T07:33:45;97932.45;;;10.24;68.67
54554;BME280;40450;55.848;-3.572;2024-02-15T07:36:10;97933.18;;;10.51;67.85
54554;BME280;40450;55.848;-3.572;2024-02-15T07:38:36;97937.00;;;10.38;67.61
54554;BME280;40450;55.848;-3.572;2024-02-15T07:41:01;97940.12;;;10.32;67.36
54554;BME280;40450;55.848;-3.572;2024-02-15T07:43:26;97937.16;;;10.52;66.59
54554;BME280;40450;55.848;-3.572;2024-02-15T07:45:51;97932.04;;;10.53;66.02
54554;BME280;40450;55.848;-3.572;2024-02-15T07:48:16;97934.81;;;10.15;66.17
54554;BME280;40450;55.848;-3.572;2024-02-15T07:50:41;97932.24;;;10.38;65.92
54554;BME280;40450;55.848;-3.572;2024-02-15T07:53:06;97931.13;;;10.95;65.68
54554;BME280;40450;55.848;-3.572;2024-02-15T07:55:31;97928.04;;;10.60;64.70
54554;BME280;40450;55.848;-3.572;2024-02-15T07:57:57;97926.94;;;10.96;64.99
54554;BME280;40450;55.848;-3.572;2024-02-15T08:00:22;97927.76;;;11.16;64.54
54554;BME280;40450;55.848;-3.572;2024-02-15T08:02:47;97934.68;;;10.47;64.10
54554;BME280;40450;55.848;-3.572;2024-02-15T08:05:13;97935.99;;;10.70;64.60
54554;BME280;40450;55.848;-3.572;2024-02-15T08:07:38;97932.10;;;10.61;64.62
54554;BME280;40450;55.848;-3.572;2024-02-15T08:10:03;97927.86;;;11.00;64.05
54554;BME280;40450;55.848;-3.572;2024-02-15T08:12:27;97930.31;;;10.51;64.11
54554;BME280;40450;55.848;-3.572;2024-02-15T08:14:56;97933.16;;;10.60;64.96
54554;BME280;40450;55.848;-3.572;2024-02-15T08:17:18;97933.97;;;10.15;65.81
54554;BME280;40450;55.848;-3.572;2024-02-15T08:19:43;97929.70;;;10.16;65.90
54554;BME280;40450;55.848;-3.572;2024-02-15T08:22:08;97927.14;;;10.23;66.37
54554;BME280;40450;55.848;-3.572;2024-02-15T08:24:34;97920.90;;;10.40;66.78
54554;BME280;40450;55.848;-3.572;2024-02-15T08:26:59;97917.74;;;9.97;66.84
54554;BME280;40450;55.848;-3.572;2024-02-15T08:29:24;97912.14;;;10.40;66.15
54554;BME280;40450;55.848;-3.572;2024-02-15T08:31:49;97920.06;;;10.34;67.14
54554;BME280;40450;55.848;-3.572;2024-02-15T08:34:14;97919.54;;;9.54;67.71
54554;BME280;40450;55.848;-3.572;2024-02-15T08:36:39;97916.51;;;10.78;66.84
54554;BME280;40450;55.848;-3.572;2024-02-15T08:39:05;97910.12;;;11.07;65.43
54554;BME280;40450;55.848;-3.572;2024-02-15T08:41:30;97910.92;;;10.83;65.40
54554;BME280;40450;55.848;-3.572;2024-02-15T08:43:55;97913.92;;;11.16;64.70
54554;BME280;40450;55.848;-3.572;2024-02-15T08:46:20;97916.31;;;10.31;64.65
54554;BME280;40450;55.848;-3.572;2024-02-15T08:48:46;97915.38;;;10.79;64.47
54554;BME280;40450;55.848;-3.572;2024-02-15T08:51:13;97914.35;;;10.68;65.57
54554;BME280;40450;55.848;-3.572;2024-02-15T08:53:35;97913.50;;;10.67;65.21
54554;BME280;40450;55.848;-3.572;2024-02-15T08:56:00;97906.28;;;11.10;64.81
54554;BME280;40450;55.848;-3.572;2024-02-15T08:58:26;97902.29;;;11.19;64.54
54554;BME280;40450;55.848;-3.572;2024-02-15T09:00:51;97898.54;;;11.20;64.16
54554;BME280;40450;55.848;-3.572;2024-02-15T09:03:16;97897.45;;;10.69;65.01
54554;BME280;40450;55.848;-3.572;2024-02-15T09:05:41;97899.75;;;10.39;65.52
54554;BME280;40450;55.848;-3.572;2024-02-15T09:08:06;97901.01;;;10.76;65.77
54554;BME280;40450;55.848;-3.572;2024-02-15T09:10:31;97899.57;;;10.34;66.13
54554;BME280;40450;55.848;-3.572;2024-02-15T09:12:56;97896.24;;;10.61;66.17
54554;BME280;40450;55.848;-3.572;2024-02-15T09:15:22;97895.10;;;10.65;66.32
54554;BME280;40450;55.848;-3.572;2024-02-15T09:17:47;97895.22;;;10.30;66.81
54554;BME280;40450;55.848;-3.572;2024-02-15T09:20:13;97896.34;;;10.45;66.73
54554;BME280;40450;55.848;-3.572;2024-02-15T09:22:37;97890.63;;;10.94;66.39
54554;BME280;40450;55.848;-3.572;2024-02-15T09:25:02;97890.08;;;10.02;66.58
54554;BME280;40450;55.848;-3.572;2024-02-15T09:27:27;97887.43;;;10.68;66.50
54554;BME280;40450;55.848;-3.572;2024-02-15T09:29:52;97887.03;;;10.66;66.54
54554;BME280;40450;55.848;-3.572;2024-02-15T09:32:18;97886.22;;;10.22;67.03
54554;BME280;40450;55.848;-3.572;2024-02-15T09:34:43;97892.37;;;10.18;67.79
54554;BME280;40450;55.848;-3.572;2024-02-15T09:37:08;97890.16;;;10.18;67.67
54554;BME280;40450;55.848;-3.572;2024-02-15T09:39:33;97888.42;;;10.21;68.20
54554;BME280;40450;55.848;-3.572;2024-02-15T09:41:58;97889.88;;;10.50;67.20
54554;BME280;40450;55.848;-3.572;2024-02-15T09:44:23;97887.68;;;10.60;67.55
54554;BME280;40450;55.848;-3.572;2024-02-15T09:46:56;97876.68;;;10.73;67.06
54554;BME280;40450;55.848;-3.572;2024-02-15T09:49:14;97875.35;;;10.42;67.07
54554;BME280;40450;55.848;-3.572;2024-02-15T09:51:40;97881.10;;;10.12;68.07
54554;BME280;40450;55.848;-3.572;2024-02-15T09:54:15;97872.04;;;10.61;67.80
54554;BME280;40450;55.848;-3.572;2024-02-15T09:56:31;97870.01;;;10.36;67.57
54554;BME280;40450;55.848;-3.572;2024-02-15T09:58:54;97872.69;;;10.46;67.49
54554;BME280;40450;55.848;-3.572;2024-02-15T10:01:21;97875.22;;;10.63;67.54
54554;BME280;40450;55.848;-3.572;2024-02-15T10:03:44;97877.85;;;10.31;67.77
54554;BME280;40450;55.848;-3.572;2024-02-15T10:06:09;97879.20;;;10.50;67.87
54554;BME280;40450;55.848;-3.572;2024-02-15T10:08:35;97876.55;;;10.03;68.23
54554;BME280;40450;55.848;-3.572;2024-02-15T10:11:06;97876.05;;;10.55;68.07
54554;BME280;40450;55.848;-3.572;2024-02-15T10:13:25;97870.89;;;10.24;67.92
54554;BME280;40450;55.848;-3.572;2024-02-15T10:15:50;97865.11;;;10.95;67.36
54554;BME280;40450;55.848;-3.572;2024-02-15T10:18:15;97870.12;;;10.24;67.20
54554;BME280;40450;55.848;-3.572;2024-02-15T10:20:56;97871.98;;;10.04;68.27
54554;BME280;40450;55.848;-3.572;2024-02-15T10:23:10;97871.86;;;10.23;68.80
54554;BME280;40450;55.848;-3.572;2024-02-15T10:25:31;97859.49;;;10.38;68.13
54554;BME280;40450;55.848;-3.572;2024-02-15T10:30:22;97860.68;;;10.36;66.59
54554;BME280;40450;55.848;-3.572;2024-02-15T10:32:46;97856.56;;;11.01;66.86
54554;BME280;40450;55.848;-3.572;2024-02-15T10:35:19;97850.47;;;11.07;66.56
54554;BME280;40450;55.848;-3.572;2024-02-15T10:37:36;97848.54;;;11.21;65.57
54554;BME280;40450;55.848;-3.572;2024-02-15T10:40:17;97849.11;;;11.22;65.64
54554;BME280;40450;55.848;-3.572;2024-02-15T10:42:33;97848.67;;;11.33;65.46
54554;BME280;40450;55.848;-3.572;2024-02-15T10:44:52;97846.64;;;11.47;65.62
54554;BME280;40450;55.848;-3.572;2024-02-15T10:47:18;97846.97;;;11.08;65.19
54554;BME280;40450;55.848;-3.572;2024-02-15T10:49:42;97850.72;;;10.83;66.26
54554;BME280;40450;55.848;-3.572;2024-02-15T10:52:11;97852.86;;;10.32;67.00
54554;BME280;40450;55.848;-3.572;2024-02-15T10:54:41;97856.23;;;10.94;66.95
54554;BME280;40450;55.848;-3.572;2024-02-15T10:57:03;97852.15;;;11.23;66.32
54554;BME280;40450;55.848;-3.572;2024-02-15T10:59:24;97853.22;;;11.45;64.82
54554;BME280;40450;55.848;-3.572;2024-02-15T11:01:50;97848.33;;;11.09;65.36
54554;BME280;40450;55.848;-3.572;2024-02-15T11:04:20;97848.91;;;11.18;65.07
54554;BME280;40450;55.848;-3.572;2024-02-15T11:06:42;97845.73;;;11.19;65.22
54554;BME280;40450;55.848;-3.572;2024-02-15T11:09:08;97840.90;;;11.77;65.05
54554;BME280;40450;55.848;-3.572;2024-02-15T11:11:30;97830.49;;;12.18;64.18
54554;BME280;40450;55.848;-3.572;2024-02-15T11:18:46;97836.61;;;12.94;60.66
54554;BME280;40450;55.848;-3.572;2024-02-15T11:21:10;97832.06;;;12.68;60.59
54554;BME280;40450;55.848;-3.572;2024-02-15T11:23:36;97826.86;;;12.83;61.43
54554;BME280;40450;55.848;-3.572;2024-02-15T11:26:01;97828.49;;;13.63;61.05
54554;BME280;40450;55.848;-3.572;2024-02-15T11:28:37;97819.14;;;12.52;60.26
54554;BME280;40450;55.848;-3.572;2024-02-15T11:30:51;97818.55;;;12.48;60.54
54554;BME280;40450;55.848;-3.572;2024-02-15T11:33:30;97815.54;;;12.84;59.79
54554;BME280;40450;55.848;-3.572;2024-02-15T11:42:58;97810.43;;;12.18;59.68
54554;BME280;40450;55.848;-3.572;2024-02-15T11:45:28;97808.95;;;12.63;60.45
54554;BME280;40450;55.848;-3.572;2024-02-15T11:47:49;97809.79;;;13.55;59.76
54554;BME280;40450;55.848;-3.572;2024-02-15T11:50:12;97807.56;;;13.35;59.21
54554;BME280;40450;55.848;-3.572;2024-02-15T11:52:38;97807.37;;;13.64;59.24
54554;BME280;40450;55.848;-3.572;2024-02-15T11:55:30;97802.58;;;13.83;58.57
54554;BME280;40450;55.848;-3.572;2024-02-15T11:57:28;97803.96;;;13.93;57.85
54554;BME280;40450;55.848;-3.572;2024-02-15T11:59:53;97806.02;;;13.30;58.05
54554;BME280;40450;55.848;-3.572;2024-02-15T12:02:18;97802.61;;;12.57;58.89
54554;BME280;40450;55.848;-3.572;2024-02-15T12:04:43;97794.87;;;12.28;60.19
54554;BME280;40450;55.848;-3.572;2024-02-15T12:07:08;97794.89;;;12.87;60.91
54554;BME280;40450;55.848;-3.572;2024-02-15T12:09:33;97795.18;;;12.03;62.25
54554;BME280;40450;55.848;-3.572;2024-02-15T12:11:58;97792.96;;;11.99;62.26
54554;BME280;40450;55.848;-3.572;2024-02-15T12:14:24;97788.74;;;12.44;62.21
54554;BME280;40450;55.848;-3.572;2024-02-15T12:17:02;97786.13;;;11.89;63.08
54554;BME280;40450;55.848;-3.572;2024-02-15T12:19:15;97785.65;;;11.64;63.89
54554;BME280;40450;55.848;-3.572;2024-02-15T12:21:40;97782.92;;;11.97;65.01
54554;BME280;40450;55.848;-3.572;2024-02-15T12:24:21;97782.52;;;11.64;65.67
54554;BME280;40450;55.848;-3.572;2024-02-15T12:26:29;97780.70;;;11.37;66.33
54554;BME280;40450;55.848;-3.572;2024-02-15T12:28:54;97773.67;;;11.81;66.11
54554;BME280;40450;55.848;-3.572;2024-02-15T12:31:19;97771.78;;;11.36;66.64
54554;BME280;40450;55.848;-3.572;2024-02-15T12:33:45;97766.15;;;11.92;66.74
54554;BME280;40450;55.848;-3.572;2024-02-15T12:36:10;97764.81;;;12.41;65.60
54554;BME280;40450;55.848;-3.572;2024-02-15T12:38:35;97768.61;;;12.19;65.40
54554;BME280;40450;55.848;-3.572;2024-02-15T12:43:25;97770.24;;;12.20;64.93
54554;BME280;40450;55.848;-3.572;2024-02-15T12:45:50;97776.42;;;12.28;65.43
54554;BME280;40450;55.848;-3.572;2024-02-15T12:48:15;97776.80;;;11.14;67.06
54554;BME280;40450;55.848;-3.572;2024-02-15T12:50:41;97777.19;;;12.27;65.86
54554;BME280;40450;55.848;-3.572;2024-02-15T12:53:06;97776.55;;;12.46;65.13
54554;BME280;40450;55.848;-3.572;2024-02-15T12:55:39;97776.35;;;12.24;64.52
54554;BME280;40450;55.848;-3.572;2024-02-15T12:57:56;97777.51;;;12.28;64.81